sensor_id;sensor_type;location;lat;lon;timestamp;P1;durP1;ratioP1;P2;durP2;ratioP2
70365;SDS011;57787;48.216;12.396;2022-11-02T00:01:54;24.48;;;14.60;;
70365;SDS011;57787;48.216;12.396;2022-11-02T00:04:21;25.92;;;15.23;;
70365;SDS011;57787;48.216;12.396;2022-11-02T00:06:47;27.27;;;16.07;;
70365;SDS011;57787;48.216;12.396;2022-11-02T00:09:15;23.97;;;13.97;;
70365;SDS011;57787;48.216;12.396;2022-11-02T00:11:42;23.15;;;14.45;;
70365;SDS011;57787;48.216;12.396;2022-11-02T00:14:09;28.05;;;15.18;;
70365;SDS011;57787;48.216;12.396;2022-11-02T00:16:37;29.17;;;15.38;;
70365;SDS011;57787;48.216;12.396;2022-11-02T00:19:05;31.63;;;16.40;;
70365;SDS011;57787;48.216;12.396;2022-11-02T00:21:33;29.70;;;15.27;;
70365;SDS011;57787;48.216;12.396;2022-11-02T00:24:09;23.75;;;13.93;;
70365;SDS011;57787;48.216;12.396;2022-11-02T00:26:39;22.38;;;12.40;;
70365;SDS011;57787;48.216;12.396;2022-11-02T00:29:06;17.35;;;10.32;;
70365;SDS011;57787;48.216;12.396;2022-11-02T00:31:34;18.35;;;9.43;;
70365;SDS011;57787;48.216;12.396;2022-11-02T00:34:00;12.65;;;9.13;;
70365;SDS011;57787;48.216;12.396;2022-11-02T00:36:27;14.00;;;9.55;;
70365;SDS011;57787;48.216;12.396;2022-11-02T00:38:54;30.00;;;11.15;;
70365;SDS011;57787;48.216;12.396;2022-11-02T00:41:22;20.87;;;10.87;;
70365;SDS011;57787;48.216;12.396;2022-11-02T00:46:18;18.38;;;9.82;;
70365;SDS011;57787;48.216;12.396;2022-11-02T00:48:45;19.50;;;10.02;;
70365;SDS011;57787;48.216;12.396;2022-11-02T00:51:12;17.97;;;9.57;;
70365;SDS011;57787;48.216;12.396;2022-11-02T00:53:39;14.80;;;9.43;;
70365;SDS011;57787;48.216;12.396;2022-11-02T00:56:06;21.20;;;9.85;;
70365;SDS011;57787;48.216;12.396;2022-11-02T00:58:33;20.60;;;10.55;;
70365;SDS011;57787;48.216;12.396;2022-11-02T01:01:09;16.67;;;9.37;;
70365;SDS011;57787;48.216;12.396;2022-11-02T01:03:36;20.98;;;10.50;;
70365;SDS011;57787;48.216;12.396;2022-11-02T01:06:07;20.47;;;11.27;;
70365;SDS011;57787;48.216;12.396;2022-11-02T01:08:38;17.75;;;10.10;;
70365;SDS011;57787;48.216;12.396;2022-11-02T01:11:13;21.50;;;10.63;;
70365;SDS011;57787;48.216;12.396;2022-11-02T01:13:41;21.48;;;11.20;;
70365;SDS011;57787;48.216;12.396;2022-11-02T01:16:09;25.13;;;11.25;;
70365;SDS011;57787;48.216;12.396;2022-11-02T01:18:36;26.63;;;11.00;;
70365;SDS011;57787;48.216;12.396;2022-11-02T01:21:03;20.08;;;10.43;;
70365;SDS011;57787;48.216;12.396;2022-11-02T01:23:33;27.65;;;10.25;;
70365;SDS011;57787;48.216;12.396;2022-11-02T01:26:07;17.63;;;8.77;;
70365;SDS011;57787;48.216;12.396;2022-11-02T01:28:36;16.63;;;8.45;;
70365;SDS011;57787;48.216;12.396;2022-11-02T01:31:04;13.32;;;6.43;;
70365;SDS011;57787;48.216;12.396;2022-11-02T01:33:32;15.40;;;7.57;;
70365;SDS011;57787;48.216;12.396;2022-11-02T01:36:01;14.52;;;7.35;;
70365;SDS011;57787;48.216;12.396;2022-11-02T01:38:32;12.63;;;7.65;;
70365;SDS011;57787;48.216;12.396;2022-11-02T01:40:59;16.45;;;8.70;;
70365;SDS011;57787;48.216;12.396;2022-11-02T01:43:30;13.90;;;7.97;;
70365;SDS011;57787;48.216;12.396;2022-11-02T01:48:43;17.55;;;6.95;;
70365;SDS011;57787;48.216;12.396;2022-11-02T01:51:16;12.43;;;6.50;;
70365;SDS011;57787;48.216;12.396;2022-11-02T01:53:44;13.75;;;6.50;;
70365;SDS011;57787;48.216;12.396;2022-11-02T01:56:13;12.30;;;6.00;;
70365;SDS011;57787;48.216;12.396;2022-11-02T01:58:51;14.10;;;6.43;;
70365;SDS011;57787;48.216;12.396;2022-11-02T02:01:22;17.38;;;6.40;;
70365;SDS011;57787;48.216;12.396;2022-11-02T02:03:51;12.77;;;5.55;;
70365;SDS011;57787;48.216;12.396;2022-11-02T02:06:21;12.80;;;5.80;;
70365;SDS011;57787;48.216;12.396;2022-11-02T02:08:51;16.27;;;5.75;;
70365;SDS011;57787;48.216;12.396;2022-11-02T02:19:40;12.05;;;6.47;;
70365;SDS011;57787;48.216;12.396;2022-11-02T02:23:07;10.88;;;6.20;;
70365;SDS011;57787;48.216;12.396;2022-11-02T02:28:44;15.15;;;6.80;;
70365;SDS011;57787;48.216;12.396;2022-11-02T02:34:07;14.40;;;6.93;;
70365;SDS011;57787;48.216;12.396;2022-11-02T02:37:00;15.25;;;7.13;;
70365;SDS011;57787;48.216;12.396;2022-11-02T02:42:31;22.27;;;8.88;;
70365;SDS011;57787;48.216;12.396;2022-11-02T02:47:39;21.52;;;9.63;;
70365;SDS011;57787;48.216;12.396;2022-11-02T02:50:16;24.40;;;10.32;;
70365;SDS011;57787;48.216;12.396;2022-11-02T02:52:46;23.02;;;9.88;;
70365;SDS011;57787;48.216;12.396;2022-11-02T02:55:17;31.73;;;12.70;;
70365;SDS011;57787;48.216;12.396;2022-11-02T02:57:48;33.10;;;13.07;;
70365;SDS011;57787;48.216;12.396;2022-11-02T03:00:16;30.23;;;10.98;;
70365;SDS011;57787;48.216;12.396;2022-11-02T03:02:44;29.92;;;11.65;;
70365;SDS011;57787;48.216;12.396;2022-11-02T03:08:08;23.23;;;10.57;;
70365;SDS011;57787;48.216;12.396;2022-11-02T03:10:58;21.17;;;9.77;;
70365;SDS011;57787;48.216;12.396;2022-11-02T03:19:23;26.80;;;11.52;;
70365;SDS011;57787;48.216;12.396;2022-11-02T03:25:12;28.48;;;11.35;;
70365;SDS011;57787;48.216;12.396;2022-11-02T03:27:51;22.77;;;9.68;;
70365;SDS011;57787;48.216;12.396;2022-11-02T03:30:30;21.23;;;8.60;;
70365;SDS011;57787;48.216;12.396;2022-11-02T03:33:26;22.45;;;10.35;;
70365;SDS011;57787;48.216;12.396;2022-11-02T03:36:05;17.23;;;8.80;;
70365;SDS011;57787;48.216;12.396;2022-11-02T03:38:47;17.80;;;8.50;;
70365;SDS011;57787;48.216;12.396;2022-11-02T03:41:21;19.13;;;8.85;;
70365;SDS011;57787;48.216;12.396;2022-11-02T03:43:52;14.75;;;7.25;;
70365;SDS011;57787;48.216;12.396;2022-11-02T03:46:25;16.52;;;7.18;;
70365;SDS011;57787;48.216;12.396;2022-11-02T03:48:53;12.80;;;7.07;;
70365;SDS011;57787;48.216;12.396;2022-11-02T03:51:22;16.48;;;7.63;;
70365;SDS011;57787;48.216;12.396;2022-11-02T03:56:36;17.38;;;6.93;;
70365;SDS011;57787;48.216;12.396;2022-11-02T03:59:09;17.83;;;7.63;;
70365;SDS011;57787;48.216;12.396;2022-11-02T04:01:39;20.30;;;8.07;;
70365;SDS011;57787;48.216;12.396;2022-11-02T04:04:10;15.57;;;7.15;;
70365;SDS011;57787;48.216;12.396;2022-11-02T04:06:37;19.52;;;7.90;;
70365;SDS011;57787;48.216;12.396;2022-11-02T04:09:05;29.35;;;11.45;;
70365;SDS011;57787;48.216;12.396;2022-11-02T04:11:34;22.55;;;10.13;;
70365;SDS011;57787;48.216;12.396;2022-11-02T04:14:20;18.83;;;7.32;;
70365;SDS011;57787;48.216;12.396;2022-11-02T04:17:08;15.20;;;6.70;;
70365;SDS011;57787;48.216;12.396;2022-11-02T04:19:56;17.30;;;7.03;;
70365;SDS011;57787;48.216;12.396;2022-11-02T04:22:26;14.30;;;6.75;;
70365;SDS011;57787;48.216;12.396;2022-11-02T04:25:12;15.43;;;8.20;;
70365;SDS011;57787;48.216;12.396;2022-11-02T04:27:48;17.02;;;7.25;;
70365;SDS011;57787;48.216;12.396;2022-11-02T04:30:18;16.02;;;7.15;;
70365;SDS011;57787;48.216;12.396;2022-11-02T04:32:47;14.27;;;7.13;;
70365;SDS011;57787;48.216;12.396;2022-11-02T04:35:34;26.58;;;8.80;;
70365;SDS011;57787;48.216;12.396;2022-11-02T04:38:02;17.13;;;8.38;;
70365;SDS011;57787;48.216;12.396;2022-11-02T04:40:48;45.00;;;14.40;;
70365;SDS011;57787;48.216;12.396;2022-11-02T04:43:36;264.38;;;66.72;;
70365;SDS011;57787;48.216;12.396;2022-11-02T04:46:04;104.22;;;30.73;;
70365;SDS011;57787;48.216;12.396;2022-11-02T04:48:32;81.17;;;24.60;;
70365;SDS011;57787;48.216;12.396;2022-11-02T04:51:01;65.43;;;21.02;;
70365;SDS011;57787;48.216;12.396;2022-11-02T04:53:27;50.85;;;17.17;;
70365;SDS011;57787;48.216;12.396;2022-11-02T04:55:55;42.20;;;14.83;;
70365;SDS011;57787;48.216;12.396;2022-11-02T05:00:50;35.25;;;13.75;;
70365;SDS011;57787;48.216;12.396;2022-11-02T05:03:19;28.20;;;11.57;;
70365;SDS011;57787;48.216;12.396;2022-11-02T05:05:46;36.45;;;12.63;;
70365;SDS011;57787;48.216;12.396;2022-11-02T05:08:19;20.75;;;11.00;;
70365;SDS011;57787;48.216;12.396;2022-11-02T05:10:47;30.52;;;14.13;;
70365;SDS011;57787;48.216;12.396;2022-11-02T05:13:14;35.72;;;14.05;;
70365;SDS011;57787;48.216;12.396;2022-11-02T05:15:41;35.33;;;19.52;;
70365;SDS011;57787;48.216;12.396;2022-11-02T05:18:08;46.47;;;22.47;;
70365;SDS011;57787;48.216;12.396;2022-11-02T05:20:50;68.32;;;33.60;;
70365;SDS011;57787;48.216;12.396;2022-11-02T05:23:19;66.97;;;33.67;;
70365;SDS011;57787;48.216;12.396;2022-11-02T05:26:08;74.05;;;36.95;;
70365;SDS011;57787;48.216;12.396;2022-11-02T05:28:36;72.03;;;33.20;;
70365;SDS011;57787;48.216;12.396;2022-11-02T05:31:03;84.80;;;36.65;;
70365;SDS011;57787;48.216;12.396;2022-11-02T05:33:41;73.22;;;32.90;;
70365;SDS011;57787;48.216;12.396;2022-11-02T05:36:08;67.78;;;27.95;;
70365;SDS011;57787;48.216;12.396;2022-11-02T05:38:36;60.25;;;23.00;;
70365;SDS011;57787;48.216;12.396;2022-11-02T05:41:07;55.28;;;22.48;;
70365;SDS011;57787;48.216;12.396;2022-11-02T05:43:34;37.47;;;17.00;;
70365;SDS011;57787;48.216;12.396;2022-11-02T05:46:02;38.20;;;17.10;;
70365;SDS011;57787;48.216;12.396;2022-11-02T05:48:30;39.72;;;15.75;;
70365;SDS011;57787;48.216;12.396;2022-11-02T05:51:00;36.17;;;15.30;;
70365;SDS011;57787;48.216;12.396;2022-11-02T05:53:29;38.42;;;16.45;;
70365;SDS011;57787;48.216;12.396;2022-11-02T05:56:00;33.95;;;14.68;;
70365;SDS011;57787;48.216;12.396;2022-11-02T05:58:29;37.20;;;15.05;;
70365;SDS011;57787;48.216;12.396;2022-11-02T06:03:31;30.92;;;13.55;;
70365;SDS011;57787;48.216;12.396;2022-11-02T06:05:59;31.40;;;14.23;;
70365;SDS011;57787;48.216;12.396;2022-11-02T06:08:30;30.13;;;14.43;;
70365;SDS011;57787;48.216;12.396;2022-11-02T06:11:03;31.55;;;13.98;;
70365;SDS011;57787;48.216;12.396;2022-11-02T06:13:31;27.33;;;13.00;;
70365;SDS011;57787;48.216;12.396;2022-11-02T06:16:02;35.40;;;13.48;;
70365;SDS011;57787;48.216;12.396;2022-11-02T06:18:30;25.35;;;12.05;;
70365;SDS011;57787;48.216;12.396;2022-11-02T06:20:58;27.50;;;12.40;;
70365;SDS011;57787;48.216;12.396;2022-11-02T06:23:28;28.60;;;13.43;;
70365;SDS011;57787;48.216;12.396;2022-11-02T06:25:58;26.60;;;12.30;;
70365;SDS011;57787;48.216;12.396;2022-11-02T06:28:26;34.08;;;14.05;;
70365;SDS011;57787;48.216;12.396;2022-11-02T06:30:56;28.70;;;14.00;;
70365;SDS011;57787;48.216;12.396;2022-11-02T06:33:24;34.35;;;14.30;;
70365;SDS011;57787;48.216;12.396;2022-11-02T06:35:52;36.95;;;14.25;;
70365;SDS011;57787;48.216;12.396;2022-11-02T06:38:20;39.28;;;14.68;;
70365;SDS011;57787;48.216;12.396;2022-11-02T06:40:54;31.95;;;14.10;;
70365;SDS011;57787;48.216;12.396;2022-11-02T06:43:22;51.78;;;17.50;;
70365;SDS011;57787;48.216;12.396;2022-11-02T06:45:55;51.20;;;17.90;;
70365;SDS011;57787;48.216;12.396;2022-11-02T06:48:23;54.60;;;18.10;;
70365;SDS011;57787;48.216;12.396;2022-11-02T06:51:03;47.20;;;16.35;;
70365;SDS011;57787;48.216;12.396;2022-11-02T06:53:31;52.67;;;16.65;;
70365;SDS011;57787;48.216;12.396;2022-11-02T06:55:59;53.15;;;16.92;;
70365;SDS011;57787;48.216;12.396;2022-11-02T06:58:27;55.08;;;18.42;;
70365;SDS011;57787;48.216;12.396;2022-11-02T07:00:59;56.97;;;21.80;;
70365;SDS011;57787;48.216;12.396;2022-11-02T07:03:30;61.47;;;20.20;;
70365;SDS011;57787;48.216;12.396;2022-11-02T07:06:03;66.15;;;21.52;;
70365;SDS011;57787;48.216;12.396;2022-11-02T07:08:37;58.25;;;20.02;;
70365;SDS011;57787;48.216;12.396;2022-11-02T07:11:04;50.70;;;17.07;;
70365;SDS011;57787;48.216;12.396;2022-11-02T07:13:31;53.17;;;18.10;;
70365;SDS011;57787;48.216;12.396;2022-11-02T07:15:58;39.00;;;14.43;;
70365;SDS011;57787;48.216;12.396;2022-11-02T07:18:25;37.67;;;13.98;;
70365;SDS011;57787;48.216;12.396;2022-11-02T07:20:57;35.45;;;11.20;;
70365;SDS011;57787;48.216;12.396;2022-11-02T07:23:24;31.90;;;10.88;;
70365;SDS011;57787;48.216;12.396;2022-11-02T07:25:52;32.80;;;10.25;;
70365;SDS011;57787;48.216;12.396;2022-11-02T07:28:22;28.98;;;10.65;;
70365;SDS011;57787;48.216;12.396;2022-11-02T07:30:54;26.67;;;9.82;;
70365;SDS011;57787;48.216;12.396;2022-11-02T07:33:23;26.52;;;10.57;;
70365;SDS011;57787;48.216;12.396;2022-11-02T07:35:51;30.13;;;11.35;;
70365;SDS011;57787;48.216;12.396;2022-11-02T07:38:20;29.50;;;11.52;;
70365;SDS011;57787;48.216;12.396;2022-11-02T07:40:47;32.20;;;10.82;;
70365;SDS011;57787;48.216;12.396;2022-11-02T07:43:18;39.22;;;13.13;;
70365;SDS011;57787;48.216;12.396;2022-11-02T07:45:44;33.50;;;13.63;;
70365;SDS011;57787;48.216;12.396;2022-11-02T07:48:12;38.67;;;12.80;;
70365;SDS011;57787;48.216;12.396;2022-11-02T07:50:39;26.20;;;11.52;;
70365;SDS011;57787;48.216;12.396;2022-11-02T07:53:07;26.27;;;10.80;;
70365;SDS011;57787;48.216;12.396;2022-11-02T07:55:36;26.92;;;10.45;;
70365;SDS011;57787;48.216;12.396;2022-11-02T07:58:03;28.85;;;10.48;;
70365;SDS011;57787;48.216;12.396;2022-11-02T08:00:36;27.15;;;9.98;;
70365;SDS011;57787;48.216;12.396;2022-11-02T08:03:05;27.42;;;10.07;;
70365;SDS011;57787;48.216;12.396;2022-11-02T08:05:35;24.85;;;10.25;;
70365;SDS011;57787;48.216;12.396;2022-11-02T08:08:12;22.67;;;9.75;;
70365;SDS011;57787;48.216;12.396;2022-11-02T08:10:44;30.50;;;9.70;;
70365;SDS011;57787;48.216;12.396;2022-11-02T08:13:14;17.58;;;8.85;;
70365;SDS011;57787;48.216;12.396;2022-11-02T08:15:43;20.30;;;8.60;;
70365;SDS011;57787;48.216;12.396;2022-11-02T08:18:13;15.77;;;7.22;;
70365;SDS011;57787;48.216;12.396;2022-11-02T08:23:14;17.00;;;8.50;;
70365;SDS011;57787;48.216;12.396;2022-11-02T08:25:42;16.25;;;6.88;;
70365;SDS011;57787;48.216;12.396;2022-11-02T08:28:12;12.90;;;5.85;;
70365;SDS011;57787;48.216;12.396;2022-11-02T08:30:41;18.75;;;7.78;;
70365;SDS011;57787;48.216;12.396;2022-11-02T08:33:21;11.68;;;5.65;;
70365;SDS011;57787;48.216;12.396;2022-11-02T08:35:48;11.88;;;6.65;;
70365;SDS011;57787;48.216;12.396;2022-11-02T08:38:17;11.52;;;6.47;;
70365;SDS011;57787;48.216;12.396;2022-11-02T08:40:49;16.55;;;7.05;;
70365;SDS011;57787;48.216;12.396;2022-11-02T08:43:16;15.38;;;7.20;;
70365;SDS011;57787;48.216;12.396;2022-11-02T08:45:43;14.90;;;6.87;;
70365;SDS011;57787;48.216;12.396;2022-11-02T08:48:30;15.00;;;7.20;;
70365;SDS011;57787;48.216;12.396;2022-11-02T08:50:57;12.82;;;6.78;;
70365;SDS011;57787;48.216;12.396;2022-11-02T08:53:24;19.27;;;6.90;;
70365;SDS011;57787;48.216;12.396;2022-11-02T08:55:55;16.30;;;6.10;;
70365;SDS011;57787;48.216;12.396;2022-11-02T08:58:23;14.80;;;5.95;;
70365;SDS011;57787;48.216;12.396;2022-11-02T09:00:52;14.27;;;5.25;;
70365;SDS011;57787;48.216;12.396;2022-11-02T09:03:20;8.25;;;4.90;;
70365;SDS011;57787;48.216;12.396;2022-11-02T09:05:56;7.30;;;4.03;;
70365;SDS011;57787;48.216;12.396;2022-11-02T09:08:26;8.90;;;3.65;;
70365;SDS011;57787;48.216;12.396;2022-11-02T09:10:57;11.25;;;3.60;;
70365;SDS011;57787;48.216;12.396;2022-11-02T09:13:26;6.50;;;2.80;;
70365;SDS011;57787;48.216;12.396;2022-11-02T09:15:56;10.32;;;2.70;;
70365;SDS011;57787;48.216;12.396;2022-11-02T09:18:26;9.90;;;3.38;;
70365;SDS011;57787;48.216;12.396;2022-11-02T09:20:53;6.90;;;3.28;;
70365;SDS011;57787;48.216;12.396;2022-11-02T09:23:22;5.57;;;3.15;;
70365;SDS011;57787;48.216;12.396;2022-11-02T09:25:50;10.90;;;3.22;;
70365;SDS011;57787;48.216;12.396;2022-11-02T09:28:17;7.32;;;3.20;;
70365;SDS011;57787;48.216;12.396;2022-11-02T09:30:44;10.45;;;3.55;;
70365;SDS011;57787;48.216;12.396;2022-11-02T09:33:13;15.65;;;2.67;;
70365;SDS011;57787;48.216;12.396;2022-11-02T09:35:41;9.25;;;2.38;;
70365;SDS011;57787;48.216;12.396;2022-11-02T09:38:10;5.38;;;1.80;;
70365;SDS011;57787;48.216;12.396;2022-11-02T09:46:23;4.50;;;1.70;;
70365;SDS011;57787;48.216;12.396;2022-11-02T09:49:15;6.18;;;1.67;;
70365;SDS011;57787;48.216;12.396;2022-11-02T09:51:50;3.45;;;1.83;;
70365;SDS011;57787;48.216;12.396;2022-11-02T09:57:08;4.97;;;1.52;;
70365;SDS011;57787;48.216;12.396;2022-11-02T09:59:39;14.95;;;3.92;;
70365;SDS011;57787;48.216;12.396;2022-11-02T10:08:16;9.10;;;3.22;;
70365;SDS011;57787;48.216;12.396;2022-11-02T10:19:16;7.40;;;2.65;;
70365;SDS011;57787;48.216;12.396;2022-11-02T10:21:46;7.47;;;2.70;;
70365;SDS011;57787;48.216;12.396;2022-11-02T10:27:16;17.17;;;6.45;;
70365;SDS011;57787;48.216;12.396;2022-11-02T10:32:48;10.45;;;4.30;;
70365;SDS011;57787;48.216;12.396;2022-11-02T10:35:21;17.50;;;7.07;;
70365;SDS011;57787;48.216;12.396;2022-11-02T10:41:16;6.15;;;2.35;;
70365;SDS011;57787;48.216;12.396;2022-11-02T10:46:51;6.37;;;1.70;;
70365;SDS011;57787;48.216;12.396;2022-11-02T10:49:40;2.42;;;1.40;;
70365;SDS011;57787;48.216;12.396;2022-11-02T10:52:37;7.03;;;1.48;;
70365;SDS011;57787;48.216;12.396;2022-11-02T10:55:11;18.63;;;6.88;;
70365;SDS011;57787;48.216;12.396;2022-11-02T10:57:52;7.82;;;2.47;;
70365;SDS011;57787;48.216;12.396;2022-11-02T11:00:23;16.00;;;6.40;;
70365;SDS011;57787;48.216;12.396;2022-11-02T11:03:05;4.70;;;1.60;;
70365;SDS011;57787;48.216;12.396;2022-11-02T11:05:33;15.45;;;6.38;;
70365;SDS011;57787;48.216;12.396;2022-11-02T11:08:25;14.13;;;4.90;;
70365;SDS011;57787;48.216;12.396;2022-11-02T11:10:53;6.32;;;2.17;;
70365;SDS011;57787;48.216;12.396;2022-11-02T11:13:21;10.00;;;3.72;;
70365;SDS011;57787;48.216;12.396;2022-11-02T11:16:11;6.88;;;1.15;;
70365;SDS011;57787;48.216;12.396;2022-11-02T11:18:48;15.63;;;3.47;;
70365;SDS011;57787;48.216;12.396;2022-11-02T11:21:40;5.97;;;1.40;;
70365;SDS011;57787;48.216;12.396;2022-11-02T11:24:18;10.43;;;3.38;;
70365;SDS011;57787;48.216;12.396;2022-11-02T11:26:45;9.27;;;2.30;;
70365;SDS011;57787;48.216;12.396;2022-11-02T11:29:25;8.05;;;1.88;;
70365;SDS011;57787;48.216;12.396;2022-11-02T11:31:57;4.40;;;1.17;;
70365;SDS011;57787;48.216;12.396;2022-11-02T11:34:26;9.00;;;3.88;;
70365;SDS011;57787;48.216;12.396;2022-11-02T11:37:08;4.72;;;1.23;;
70365;SDS011;57787;48.216;12.396;2022-11-02T11:39:38;8.57;;;3.35;;
70365;SDS011;57787;48.216;12.396;2022-11-02T11:42:20;13.95;;;3.13;;
70365;SDS011;57787;48.216;12.396;2022-11-02T11:45:00;7.10;;;1.45;;
70365;SDS011;57787;48.216;12.396;2022-11-02T11:47:50;8.50;;;2.58;;
70365;SDS011;57787;48.216;12.396;2022-11-02T11:55:50;10.10;;;1.88;;
70365;SDS011;57787;48.216;12.396;2022-11-02T11:58:24;8.98;;;1.67;;
70365;SDS011;57787;48.216;12.396;2022-11-02T12:06:49;4.35;;;1.48;;
70365;SDS011;57787;48.216;12.396;2022-11-02T12:09:57;5.82;;;1.70;;
70365;SDS011;57787;48.216;12.396;2022-11-02T12:15:27;6.00;;;1.42;;
70365;SDS011;57787;48.216;12.396;2022-11-02T12:26:00;9.07;;;1.77;;
70365;SDS011;57787;48.216;12.396;2022-11-02T12:28:41;6.93;;;1.73;;
70365;SDS011;57787;48.216;12.396;2022-11-02T12:31:34;5.68;;;1.55;;
70365;SDS011;57787;48.216;12.396;2022-11-02T12:43:17;3.40;;;1.02;;
70365;SDS011;57787;48.216;12.396;2022-11-02T12:46:05;4.50;;;1.20;;
70365;SDS011;57787;48.216;12.396;2022-11-02T12:51:33;2.80;;;0.90;;
70365;SDS011;57787;48.216;12.396;2022-11-02T12:54:14;4.03;;;1.00;;
70365;SDS011;57787;48.216;12.396;2022-11-02T12:56:54;3.20;;;0.90;;
70365;SDS011;57787;48.216;12.396;2022-11-02T12:59:22;3.78;;;0.98;;
70365;SDS011;57787;48.216;12.396;2022-11-02T13:02:17;5.18;;;1.63;;
70365;SDS011;57787;48.216;12.396;2022-11-02T13:07:28;2.35;;;0.73;;
70365;SDS011;57787;48.216;12.396;2022-11-02T13:10:06;3.90;;;0.75;;
70365;SDS011;57787;48.216;12.396;2022-11-02T13:12:43;2.13;;;0.80;;
70365;SDS011;57787;48.216;12.396;2022-11-02T13:15:14;2.88;;;1.23;;
70365;SDS011;57787;48.216;12.396;2022-11-02T13:17:51;3.17;;;0.73;;
70365;SDS011;57787;48.216;12.396;2022-11-02T13:23:14;7.93;;;0.90;;
70365;SDS011;57787;48.216;12.396;2022-11-02T13:25:46;9.10;;;1.13;;
70365;SDS011;57787;48.216;12.396;2022-11-02T13:28:18;3.80;;;1.13;;
70365;SDS011;57787;48.216;12.396;2022-11-02T13:30:57;1.50;;;0.60;;
70365;SDS011;57787;48.216;12.396;2022-11-02T13:35:55;2.72;;;0.73;;
70365;SDS011;57787;48.216;12.396;2022-11-02T13:38:24;6.20;;;1.17;;
70365;SDS011;57787;48.216;12.396;2022-11-02T13:49:56;4.38;;;0.70;;
70365;SDS011;57787;48.216;12.396;2022-11-02T13:55:15;1.75;;;0.75;;
70365;SDS011;57787;48.216;12.396;2022-11-02T13:57:47;2.38;;;0.77;;
70365;SDS011;57787;48.216;12.396;2022-11-02T14:02:48;3.37;;;0.90;;
70365;SDS011;57787;48.216;12.396;2022-11-02T14:05:46;4.07;;;1.83;;
70365;SDS011;57787;48.216;12.396;2022-11-02T14:08:28;3.60;;;0.65;;
70365;SDS011;57787;48.216;12.396;2022-11-02T14:11:02;2.22;;;0.73;;
70365;SDS011;57787;48.216;12.396;2022-11-02T14:14:19;5.13;;;0.80;;
70365;SDS011;57787;48.216;12.396;2022-11-02T14:29:54;5.32;;;1.73;;
70365;SDS011;57787;48.216;12.396;2022-11-02T14:35:10;4.82;;;1.00;;
70365;SDS011;57787;48.216;12.396;2022-11-02T14:37:52;3.53;;;1.10;;
70365;SDS011;57787;48.216;12.396;2022-11-02T14:48:48;3.97;;;0.73;;
70365;SDS011;57787;48.216;12.396;2022-11-02T14:51:22;4.70;;;0.80;;
70365;SDS011;57787;48.216;12.396;2022-11-02T14:54:18;8.60;;;0.90;;
70365;SDS011;57787;48.216;12.396;2022-11-02T14:59:15;6.00;;;1.00;;
70365;SDS011;57787;48.216;12.396;2022-11-02T15:04:51;14.55;;;3.20;;
70365;SDS011;57787;48.216;12.396;2022-11-02T15:07:25;28.98;;;2.20;;
70365;SDS011;57787;48.216;12.396;2022-11-02T15:10:06;11.30;;;5.55;;
70365;SDS011;57787;48.216;12.396;2022-11-02T15:18:20;5.00;;;0.98;;
70365;SDS011;57787;48.216;12.396;2022-11-02T15:23:45;8.30;;;1.45;;
70365;SDS011;57787;48.216;12.396;2022-11-02T15:26:22;5.90;;;1.00;;
70365;SDS011;57787;48.216;12.396;2022-11-02T15:28:54;8.70;;;1.40;;
70365;SDS011;57787;48.216;12.396;2022-11-02T15:31:25;4.82;;;1.10;;
70365;SDS011;57787;48.216;12.396;2022-11-02T15:34:01;5.53;;;1.17;;
70365;SDS011;57787;48.216;12.396;2022-11-02T15:36:34;6.13;;;1.00;;
70365;SDS011;57787;48.216;12.396;2022-11-02T15:39:07;5.80;;;0.88;;
70365;SDS011;57787;48.216;12.396;2022-11-02T15:41:44;7.00;;;1.58;;
70365;SDS011;57787;48.216;12.396;2022-11-02T15:53:04;6.38;;;3.30;;
70365;SDS011;57787;48.216;12.396;2022-11-02T16:01:20;10.93;;;2.92;;
70365;SDS011;57787;48.216;12.396;2022-11-02T16:03:57;14.13;;;4.90;;
70365;SDS011;57787;48.216;12.396;2022-11-02T16:06:37;19.50;;;5.78;;
70365;SDS011;57787;48.216;12.396;2022-11-02T16:12:14;10.82;;;2.78;;
70365;SDS011;57787;48.216;12.396;2022-11-02T16:14:58;4.57;;;1.85;;
70365;SDS011;57787;48.216;12.396;2022-11-02T16:17:49;6.43;;;2.13;;
70365;SDS011;57787;48.216;12.396;2022-11-02T16:20:22;5.65;;;1.88;;
70365;SDS011;57787;48.216;12.396;2022-11-02T16:22:58;5.60;;;1.95;;
70365;SDS011;57787;48.216;12.396;2022-11-02T16:33:42;8.27;;;2.30;;
70365;SDS011;57787;48.216;12.396;2022-11-02T16:36:12;9.43;;;1.98;;
70365;SDS011;57787;48.216;12.396;2022-11-02T16:38:47;5.00;;;1.70;;
70365;SDS011;57787;48.216;12.396;2022-11-02T16:41:25;11.57;;;2.75;;
70365;SDS011;57787;48.216;12.396;2022-11-02T16:43:53;8.52;;;3.33;;
70365;SDS011;57787;48.216;12.396;2022-11-02T16:49:10;8.45;;;2.75;;
70365;SDS011;57787;48.216;12.396;2022-11-02T16:54:28;8.73;;;2.88;;
70365;SDS011;57787;48.216;12.396;2022-11-02T16:57:12;17.98;;;3.28;;
70365;SDS011;57787;48.216;12.396;2022-11-02T17:02:36;11.52;;;3.22;;
70365;SDS011;57787;48.216;12.396;2022-11-02T17:05:18;9.25;;;3.53;;
70365;SDS011;57787;48.216;12.396;2022-11-02T17:08:20;8.85;;;3.40;;
70365;SDS011;57787;48.216;12.396;2022-11-02T17:11:00;8.95;;;3.60;;
70365;SDS011;57787;48.216;12.396;2022-11-02T17:13:29;13.35;;;4.28;;
70365;SDS011;57787;48.216;12.396;2022-11-02T17:16:09;11.63;;;3.83;;
70365;SDS011;57787;48.216;12.396;2022-11-02T17:18:37;11.10;;;4.20;;
70365;SDS011;57787;48.216;12.396;2022-11-02T17:23:57;15.15;;;5.47;;
70365;SDS011;57787;48.216;12.396;2022-11-02T17:26:28;17.73;;;5.72;;
70365;SDS011;57787;48.216;12.396;2022-11-02T17:31:52;14.50;;;6.38;;
70365;SDS011;57787;48.216;12.396;2022-11-02T17:34:22;14.05;;;4.93;;
70365;SDS011;57787;48.216;12.396;2022-11-02T17:36:49;9.88;;;4.30;;
70365;SDS011;57787;48.216;12.396;2022-11-02T17:39:18;15.68;;;5.18;;
70365;SDS011;57787;48.216;12.396;2022-11-02T17:41:47;10.43;;;4.47;;
70365;SDS011;57787;48.216;12.396;2022-11-02T17:44:39;11.18;;;4.60;;
70365;SDS011;57787;48.216;12.396;2022-11-02T17:47:16;14.52;;;4.60;;
70365;SDS011;57787;48.216;12.396;2022-11-02T17:49:44;9.93;;;3.92;;
70365;SDS011;57787;48.216;12.396;2022-11-02T17:52:13;10.18;;;4.30;;
70365;SDS011;57787;48.216;12.396;2022-11-02T17:54:43;10.65;;;4.72;;
70365;SDS011;57787;48.216;12.396;2022-11-02T17:57:15;13.93;;;5.53;;
70365;SDS011;57787;48.216;12.396;2022-11-02T17:59:44;15.02;;;6.00;;
70365;SDS011;57787;48.216;12.396;2022-11-02T18:02:13;25.13;;;7.55;;
70365;SDS011;57787;48.216;12.396;2022-11-02T18:04:51;17.73;;;8.18;;
70365;SDS011;57787;48.216;12.396;2022-11-02T18:07:17;15.00;;;8.00;;
70365;SDS011;57787;48.216;12.396;2022-11-02T18:09:44;20.20;;;9.23;;
70365;SDS011;57787;48.216;12.396;2022-11-02T18:12:11;19.90;;;9.80;;
70365;SDS011;57787;48.216;12.396;2022-11-02T18:14:43;18.02;;;10.65;;
70365;SDS011;57787;48.216;12.396;2022-11-02T18:17:11;15.82;;;9.98;;
70365;SDS011;57787;48.216;12.396;2022-11-02T18:19:37;25.80;;;12.10;;
70365;SDS011;57787;48.216;12.396;2022-11-02T18:22:05;24.60;;;12.18;;
70365;SDS011;57787;48.216;12.396;2022-11-02T18:24:32;25.15;;;12.38;;
70365;SDS011;57787;48.216;12.396;2022-11-02T18:27:01;23.50;;;12.65;;
70365;SDS011;57787;48.216;12.396;2022-11-02T18:29:28;28.88;;;14.38;;
70365;SDS011;57787;48.216;12.396;2022-11-02T18:34:28;26.33;;;12.90;;